createdAt,value
2018-08-03T00:00:56.043Z,50.40
2018-08-03T00:03:25.932Z,50.40
2018-08-03T00:05:55.835Z,50.60
2018-08-03T00:08:25.727Z,51.30
2018-08-03T00:10:55.603Z,50.50
2018-08-03T00:13:25.482Z,50.50
2018-08-03T00:15:55.371Z,50.40
2018-08-03T00:18:25.269Z,50.60
2018-08-03T00:20:55.470Z,50.70
2018-08-03T00:23:25.428Z,50.60
2018-08-03T00:25:55.306Z,50.50
2018-08-03T00:28:25.189Z,50.70
2018-08-03T00:30:55.049Z,50.90
2018-08-03T00:33:24.933Z,50.90
2018-08-03T00:35:54.863Z,50.70
2018-08-03T00:38:24.812Z,50.80
2018-08-03T00:40:54.682Z,50.70
2018-08-03T00:43:24.573Z,50.90
2018-08-03T00:45:54.435Z,51.00
2018-08-03T00:48:24.316Z,51.00
2018-08-03T00:50:54.192Z,51.00
2018-08-03T00:53:24.099Z,50.90
2018-08-03T00:55:54.025Z,51.00
2018-08-03T00:58:23.902Z,51.30
2018-08-03T01:00:53.774Z,51.20
2018-08-03T01:03:23.627Z,51.10
2018-08-03T01:05:53.542Z,51.10
2018-08-03T01:08:23.451Z,51.30
2018-08-03T01:10:53.317Z,51.30
2018-08-03T01:13:23.158Z,51.20
2018-08-03T01:15:53.006Z,51.10
2018-08-03T01:18:22.862Z,51.10
2018-08-03T01:20:52.711Z,51.00
2018-08-03T01:23:22.562Z,51.10
2018-08-03T01:25:52.401Z,51.20
2018-08-03T01:28:22.523Z,51.30
2018-08-03T01:30:52.360Z,51.30
2018-08-03T01:33:22.246Z,51.50
2018-08-03T01:35:52.110Z,51.30
2018-08-03T01:38:21.954Z,51.30
2018-08-03T01:40:51.835Z,51.40
2018-08-03T01:43:22.897Z,51.30
2018-08-03T01:45:52.701Z,51.20
2018-08-03T01:48:22.578Z,51.30
2018-08-03T01:50:52.491Z,51.20
2018-08-03T01:53:22.338Z,51.10
2018-08-03T01:55:52.179Z,51.00
2018-08-03T01:58:22.046Z,51.30
2018-08-03T02:00:51.888Z,51.30
2018-08-03T02:03:21.772Z,51.30
2018-08-03T02:05:56.023Z,51.30
2018-08-03T02:08:25.890Z,51.40
2018-08-03T02:10:55.738Z,51.40
2018-08-03T02:13:25.593Z,51.20
2018-08-03T02:15:55.446Z,51.30
2018-08-03T02:18:25.325Z,51.60
2018-08-03T02:20:55.234Z,51.50
2018-08-03T02:23:25.091Z,51.30
2018-08-03T02:25:54.929Z,51.30
2018-08-03T02:28:24.766Z,51.40
2018-08-03T02:30:54.651Z,51.50
2018-08-03T02:33:24.729Z,51.50
2018-08-03T02:35:54.754Z,51.60
2018-08-03T02:38:24.719Z,51.50
2018-08-03T02:40:54.626Z,51.50
2018-08-03T02:43:24.580Z,51.50
2018-08-03T02:45:54.491Z,51.50
2018-08-03T02:48:24.403Z,51.60
2018-08-03T02:50:54.279Z,52.40
2018-08-03T02:53:24.158Z,52.00
2018-08-03T02:55:54.055Z,52.00
2018-08-03T02:58:23.931Z,52.00
2018-08-03T03:00:53.811Z,52.10
2018-08-03T03:03:23.718Z,52.10
2018-08-03T03:05:53.573Z,52.00
2018-08-03T03:08:23.496Z,52.20
2018-08-03T03:10:53.373Z,52.00
2018-08-03T03:13:23.274Z,52.30
2018-08-03T03:15:53.143Z,52.10
2018-08-03T03:18:23.125Z,52.50
2018-08-03T03:20:53.210Z,52.40
2018-08-03T03:23:23.102Z,52.30
2018-08-03T03:25:52.967Z,52.90
2018-08-03T03:28:23.183Z,52.70
2018-08-03T03:30:53.463Z,52.70
2018-08-03T03:33:23.382Z,52.70
2018-08-03T03:35:53.433Z,52.70
2018-08-03T03:38:23.322Z,52.50
2018-08-03T03:40:53.187Z,52.40
2018-08-03T03:43:23.105Z,52.20
2018-08-03T03:45:52.980Z,52.10
2018-08-03T03:48:22.894Z,52.00
2018-08-03T03:50:52.798Z,52.00
2018-08-03T03:53:22.693Z,52.20
2018-08-03T03:55:52.903Z,52.20
2018-08-03T03:58:22.771Z,52.20
2018-08-03T04:00:52.652Z,52.30
2018-08-03T04:03:22.522Z,52.20
2018-08-03T04:05:52.391Z,52.20
2018-08-03T04:08:22.259Z,52.30
2018-08-03T04:10:52.160Z,52.20
2018-08-03T04:13:22.019Z,52.50
2018-08-03T04:15:51.908Z,52.60
2018-08-03T04:18:22.676Z,52.70
2018-08-03T04:20:53.218Z,52.70
2018-08-03T04:23:23.108Z,52.80
2018-08-03T04:25:53.007Z,53.00
2018-08-03T04:28:23.122Z,53.50
2018-08-03T04:30:53.042Z,53.10
2018-08-03T04:33:22.911Z,53.00
2018-08-03T04:35:59.269Z,53.00
2018-08-03T04:38:29.159Z,53.00
2018-08-03T04:40:59.036Z,53.00
2018-08-03T04:43:28.915Z,53.20
2018-08-03T04:45:58.790Z,53.00
2018-08-03T04:48:28.658Z,53.30
2018-08-03T04:50:58.545Z,53.40
2018-08-03T04:53:28.413Z,53.40
2018-08-03T04:55:58.382Z,53.40
2018-08-03T04:58:28.267Z,53.90
2018-08-03T05:00:58.150Z,53.80
2018-08-03T05:03:28.014Z,53.70
2018-08-03T05:05:57.899Z,53.70
2018-08-03T05:08:27.771Z,53.70
2018-08-03T05:10:57.651Z,53.70
2018-08-03T05:13:27.516Z,53.70
2018-08-03T05:15:57.394Z,53.60
2018-08-03T05:18:27.258Z,53.70
2018-08-03T05:20:57.132Z,54.00
2018-08-03T05:23:27.006Z,54.10
2018-08-03T05:25:56.880Z,54.60
2018-08-03T05:28:26.784Z,54.30
2018-08-03T05:30:56.673Z,54.20
2018-08-03T05:33:26.563Z,54.20
2018-08-03T05:35:56.992Z,54.20
2018-08-03T05:38:26.846Z,54.10
2018-08-03T05:40:56.718Z,53.90
2018-08-03T05:45:56.108Z,53.90
2018-08-03T05:48:25.998Z,54.00
2018-08-03T05:50:55.898Z,54.40
2018-08-03T05:53:25.786Z,54.00
2018-08-03T05:55:56.418Z,54.00
2018-08-03T05:58:26.282Z,54.60
2018-08-03T06:00:56.166Z,54.20
2018-08-03T06:03:26.049Z,54.20
2018-08-03T06:05:56.570Z,54.20
2018-08-03T06:08:26.706Z,54.30
2018-08-03T06:10:56.805Z,54.30
2018-08-03T06:13:26.688Z,54.10
2018-08-03T06:15:56.592Z,54.00
2018-08-03T06:18:26.460Z,54.00
2018-08-03T06:20:56.404Z,54.00
2018-08-03T06:23:26.319Z,53.90
2018-08-03T06:28:26.174Z,53.90
2018-08-03T06:30:56.150Z,53.70
2018-08-03T06:33:26.035Z,53.80
2018-08-03T06:35:56.028Z,53.70
2018-08-03T06:38:26.232Z,53.40
2018-08-03T06:40:56.115Z,53.20
2018-08-03T06:43:26.078Z,52.80
2018-08-03T06:45:55.991Z,52.90
2018-08-03T06:48:25.944Z,52.80
2018-08-03T06:50:55.914Z,52.80
2018-08-03T06:53:25.805Z,53.30
2018-08-03T06:55:56.111Z,52.60
2018-08-03T06:58:26.003Z,52.60
2018-08-03T07:00:56.974Z,52.50
2018-08-03T07:03:26.921Z,52.40
2018-08-03T07:08:26.351Z,52.20
2018-08-03T07:10:56.211Z,52.20
2018-08-03T07:13:26.095Z,51.80
2018-08-03T07:15:56.000Z,51.70
2018-08-03T07:18:25.943Z,51.50
2018-08-03T07:20:55.873Z,51.50
2018-08-03T07:23:25.851Z,51.30
2018-08-03T07:25:55.806Z,51.20
2018-08-03T07:28:25.747Z,51.10
2018-08-03T07:30:55.646Z,51.10
2018-08-03T07:33:25.566Z,51.00
2018-08-03T07:35:55.441Z,50.80
2018-08-03T07:38:25.330Z,51.50
2018-08-03T07:40:55.241Z,50.90
2018-08-03T07:43:25.156Z,50.80
2018-08-03T07:45:55.011Z,50.60
2018-08-03T07:48:24.910Z,51.10
2018-08-03T07:50:54.786Z,50.60
2018-08-03T07:53:24.666Z,50.40
2018-08-03T07:55:54.540Z,50.50
2018-08-03T07:58:24.416Z,50.40
2018-08-03T08:00:54.289Z,50.40
2018-08-03T08:03:24.178Z,50.50
2018-08-03T08:05:54.054Z,50.40
2018-08-03T08:08:23.918Z,50.30
2018-08-03T08:10:53.836Z,50.50
2018-08-03T08:13:23.700Z,50.40
2018-08-03T08:15:53.591Z,50.40
2018-08-03T08:18:23.442Z,50.30
2018-08-03T08:20:53.319Z,50.40
2018-08-03T08:23:23.200Z,50.30
2018-08-03T08:25:53.087Z,50.20
2018-08-03T08:28:23.214Z,50.10
2018-08-03T08:30:53.115Z,50.00
2018-08-03T08:33:22.979Z,50.00
2018-08-03T08:35:52.851Z,50.00
2018-08-03T08:38:22.730Z,49.90
2018-08-03T08:40:52.598Z,50.00
2018-08-03T08:43:22.573Z,49.80
2018-08-03T08:45:52.361Z,49.60
2018-08-03T08:48:22.233Z,49.40
2018-08-03T08:50:52.113Z,49.20
2018-08-03T08:53:22.036Z,48.90
2018-08-03T08:55:51.882Z,48.80
2018-08-03T08:58:21.741Z,48.70
2018-08-03T09:03:21.114Z,48.40
2018-08-03T09:05:50.998Z,48.80
2018-08-03T09:08:20.892Z,47.90
2018-08-03T09:10:50.827Z,47.90
2018-08-03T09:15:50.228Z,48.20
2018-08-03T09:18:20.122Z,48.10
2018-08-03T09:20:50.002Z,48.00
2018-08-03T09:23:19.935Z,47.70
2018-08-03T09:25:49.806Z,47.80
2018-08-03T09:28:19.699Z,47.90
2018-08-03T09:33:19.126Z,47.70
2018-08-03T09:35:49.035Z,47.70
2018-08-03T09:38:18.903Z,47.60
2018-08-03T09:40:48.782Z,47.50
2018-08-03T09:43:18.666Z,47.30
2018-08-03T09:45:48.534Z,47.30
2018-08-03T09:48:18.395Z,47.70
2018-08-03T09:50:48.266Z,47.50
2018-08-03T09:53:18.129Z,47.50
2018-08-03T09:55:47.999Z,47.20
2018-08-03T09:58:17.880Z,47.00
2018-08-03T10:00:52.883Z,46.50
2018-08-03T10:03:22.748Z,46.40
2018-08-03T10:08:22.827Z,46.40
2018-08-03T10:10:53.629Z,46.50
2018-08-03T10:13:23.594Z,46.20
2018-08-03T10:15:53.470Z,46.00
2018-08-03T10:18:23.439Z,46.00
2018-08-03T10:20:53.418Z,46.00
2018-08-03T10:23:23.360Z,45.70
2018-08-03T10:25:53.478Z,45.50
2018-08-03T10:28:24.074Z,45.20
2018-08-03T10:30:53.919Z,45.10
2018-08-03T10:33:23.794Z,44.90
2018-08-03T10:38:24.236Z,44.50
2018-08-03T10:40:54.122Z,43.70
2018-08-03T10:43:23.985Z,43.90
2018-08-03T10:45:53.887Z,44.20
2018-08-03T10:48:23.820Z,43.70
2018-08-03T10:50:53.707Z,43.20
2018-08-03T10:53:23.595Z,43.80
2018-08-03T10:55:53.443Z,43.60
2018-08-03T10:58:23.368Z,43.30
2018-08-03T11:00:53.180Z,43.50
2018-08-03T11:03:23.054Z,43.30
2018-08-03T11:05:53.255Z,43.40
2018-08-03T11:08:23.123Z,43.10
2018-08-03T11:10:52.987Z,43.40
2018-08-03T11:13:22.849Z,42.30
2018-08-03T11:15:52.710Z,42.10
2018-08-03T11:18:22.599Z,41.80
2018-08-03T11:20:52.474Z,41.70
2018-08-03T11:23:22.354Z,41.80
2018-08-03T11:25:52.214Z,41.30
2018-08-03T11:28:22.094Z,41.80
2018-08-03T11:30:51.972Z,41.00
2018-08-03T11:33:21.842Z,41.50
2018-08-03T11:35:51.719Z,41.30
2018-08-03T11:38:21.624Z,41.40
2018-08-03T11:40:51.572Z,41.30
2018-08-03T11:43:21.384Z,41.70
2018-08-03T11:45:51.486Z,40.20
2018-08-03T11:48:21.372Z,39.40
2018-08-03T11:50:51.242Z,39.10
2018-08-03T11:53:21.117Z,39.50
2018-08-03T11:55:50.986Z,38.60
2018-08-03T11:58:20.860Z,39.50
2018-08-03T12:00:50.755Z,39.60
2018-08-03T12:03:20.623Z,39.70
2018-08-03T12:05:50.481Z,40.70
2018-08-03T12:08:20.350Z,40.50
2018-08-03T12:10:50.279Z,40.20
2018-08-03T12:13:20.158Z,40.30
2018-08-03T12:15:50.055Z,40.40
2018-08-03T12:18:19.987Z,40.60
2018-08-03T12:20:49.908Z,40.40
2018-08-03T12:23:19.854Z,40.30
2018-08-03T12:25:49.670Z,40.40
2018-08-03T12:28:19.561Z,40.40
2018-08-03T12:30:49.446Z,40.50
2018-08-03T12:33:19.347Z,40.30
2018-08-03T12:35:49.350Z,40.90
2018-08-03T12:38:19.227Z,40.10
2018-08-03T12:40:49.117Z,40.30
2018-08-03T12:43:19.010Z,40.60
2018-08-03T12:45:48.890Z,40.80
2018-08-03T12:48:18.763Z,40.80
2018-08-03T12:50:48.695Z,40.90
2018-08-03T12:53:18.574Z,40.60
2018-08-03T12:55:48.443Z,40.70
2018-08-03T12:58:18.311Z,41.10
2018-08-03T13:00:48.166Z,40.70
2018-08-03T13:03:18.034Z,40.40
2018-08-03T13:05:47.907Z,40.60
2018-08-03T13:08:17.815Z,40.80
2018-08-03T13:10:47.645Z,40.30
2018-08-03T13:13:17.649Z,40.00
2018-08-03T13:15:47.450Z,40.10
2018-08-03T13:18:17.315Z,39.80
2018-08-03T13:20:47.190Z,39.90
2018-08-03T13:23:17.075Z,39.90
2018-08-03T13:25:46.939Z,39.80
2018-08-03T13:28:16.825Z,39.50
2018-08-03T13:30:46.686Z,39.70
2018-08-03T13:33:16.575Z,39.70
2018-08-03T13:35:46.434Z,39.90
2018-08-03T13:38:16.359Z,39.60
2018-08-03T13:40:46.227Z,39.50
2018-08-03T13:43:16.128Z,38.90
2018-08-03T13:45:45.990Z,38.70
2018-08-03T13:48:15.875Z,38.80
2018-08-03T13:50:45.743Z,38.70
2018-08-03T13:53:15.632Z,38.80
2018-08-03T13:55:45.515Z,38.40
2018-08-03T13:58:15.438Z,38.00
2018-08-03T14:00:45.310Z,37.20
2018-08-03T14:05:44.750Z,37.40
2018-08-03T14:08:14.657Z,36.80
2018-08-03T14:10:44.541Z,36.70
2018-08-03T14:13:14.407Z,37.00
2018-08-03T14:15:44.311Z,37.00
2018-08-03T14:18:14.170Z,37.10
2018-08-03T14:20:44.043Z,37.00
2018-08-03T14:23:13.938Z,37.20
2018-08-03T14:25:43.805Z,37.20
2018-08-03T14:28:14.316Z,37.70
2018-08-03T14:30:44.484Z,36.90
2018-08-03T14:35:44.029Z,36.80
2018-08-03T14:38:13.902Z,37.00
2018-08-03T14:40:44.606Z,36.60
2018-08-03T14:43:14.472Z,36.60
2018-08-03T14:45:44.358Z,37.20
2018-08-03T14:48:14.238Z,36.90
2018-08-03T14:50:44.148Z,37.10
2018-08-03T14:53:14.011Z,36.60
2018-08-03T14:55:43.906Z,36.40
2018-08-03T14:58:15.035Z,36.60
2018-08-03T15:00:45.966Z,36.60
2018-08-03T15:03:15.848Z,36.30
2018-08-03T15:05:45.778Z,36.70
2018-08-03T15:08:15.667Z,36.70
2018-08-03T15:13:15.214Z,36.40
2018-08-03T15:15:45.075Z,36.30
2018-08-03T15:18:14.945Z,36.50
2018-08-03T15:20:44.844Z,36.30
2018-08-03T15:25:44.412Z,36.20
2018-08-03T15:28:14.343Z,36.50
2018-08-03T15:30:44.643Z,36.70
2018-08-03T15:33:14.496Z,37.00
2018-08-03T15:35:44.369Z,37.00
2018-08-03T15:38:14.297Z,37.00
2018-08-03T15:40:44.158Z,36.90
2018-08-03T15:43:14.022Z,37.00
2018-08-03T15:45:43.900Z,37.10
2018-08-03T15:48:13.791Z,37.10
2018-08-03T15:50:43.794Z,36.50
2018-08-03T15:53:13.702Z,36.80
2018-08-03T15:55:43.594Z,36.60
2018-08-03T15:58:13.462Z,36.50
2018-08-03T16:00:43.465Z,36.40
2018-08-03T16:03:13.315Z,36.70
2018-08-03T16:05:43.181Z,36.70
2018-08-03T16:08:13.133Z,36.90
2018-08-03T16:10:43.530Z,37.10
2018-08-03T16:13:13.437Z,37.10
2018-08-03T16:15:43.305Z,37.10
2018-08-03T16:18:13.166Z,36.40
2018-08-03T16:20:43.038Z,36.10
2018-08-03T16:23:12.906Z,35.90
2018-08-03T16:25:42.800Z,36.10
2018-08-03T16:28:12.660Z,36.00
2018-08-03T16:30:42.525Z,35.90
2018-08-03T16:33:12.378Z,36.20
2018-08-03T16:35:42.256Z,35.80
2018-08-03T16:38:12.113Z,36.20
2018-08-03T16:40:41.978Z,37.10
2018-08-03T16:43:11.846Z,35.80
2018-08-03T16:45:41.851Z,35.60
2018-08-03T16:48:11.689Z,35.80
2018-08-03T16:50:41.572Z,36.10
2018-08-03T16:53:11.441Z,35.80
2018-08-03T16:55:41.326Z,35.90
2018-08-03T16:58:11.227Z,36.00
2018-08-03T17:00:41.110Z,36.20
2018-08-03T17:03:12.029Z,35.90
2018-08-03T17:05:42.098Z,36.20
2018-08-03T17:08:12.006Z,36.60
2018-08-03T17:13:11.443Z,36.10
2018-08-03T17:15:41.249Z,36.20
2018-08-03T17:18:11.110Z,36.40
2018-08-03T17:20:40.974Z,35.60
2018-08-03T17:23:10.842Z,35.70
2018-08-03T17:25:40.733Z,36.10
2018-08-03T17:28:10.659Z,36.60
2018-08-03T17:30:40.467Z,36.30
2018-08-03T17:33:10.375Z,35.70
2018-08-03T17:35:40.254Z,35.90
2018-08-03T17:38:10.114Z,35.90
2018-08-03T17:40:39.987Z,35.90
2018-08-03T17:43:09.872Z,36.40
2018-08-03T17:45:39.811Z,36.10
2018-08-03T17:48:09.615Z,36.30
2018-08-03T17:50:39.486Z,37.00
2018-08-03T17:53:09.347Z,36.80
2018-08-03T17:55:39.226Z,36.50
2018-08-03T17:58:09.081Z,36.30
2018-08-03T18:00:38.954Z,36.80
2018-08-03T18:03:08.887Z,36.80
2018-08-03T18:05:38.769Z,37.00
2018-08-03T18:08:08.623Z,37.70
2018-08-03T18:10:38.495Z,38.20
2018-08-03T18:13:08.565Z,37.80
2018-08-03T18:15:38.498Z,38.60
2018-08-03T18:18:08.383Z,37.90
2018-08-03T18:20:38.251Z,37.80
2018-08-03T18:23:08.106Z,38.40
2018-08-03T18:25:39.252Z,38.30
2018-08-03T18:28:09.142Z,38.50
2018-08-03T18:30:39.140Z,38.70
2018-08-03T18:33:09.047Z,38.70
2018-08-03T18:35:38.909Z,39.90
2018-08-03T18:38:08.782Z,39.80
2018-08-03T18:40:38.679Z,40.20
2018-08-03T18:43:08.530Z,39.60
2018-08-03T18:45:38.494Z,40.20
2018-08-03T18:48:08.416Z,39.40
2018-08-03T18:50:38.296Z,40.10
2018-08-03T18:53:08.158Z,40.20
2018-08-03T18:55:38.022Z,40.70
2018-08-03T18:58:07.881Z,40.50
2018-08-03T19:00:37.766Z,39.80
2018-08-03T19:03:07.621Z,40.10
2018-08-03T19:05:37.502Z,39.70
2018-08-03T19:10:36.903Z,41.50
2018-08-03T19:13:06.862Z,39.90
2018-08-03T19:15:39.761Z,40.00
2018-08-03T19:18:10.302Z,39.30
2018-08-03T19:20:40.854Z,40.50
2018-08-03T19:23:10.714Z,40.00
2018-08-03T19:25:40.582Z,39.30
2018-08-03T19:28:10.451Z,38.90
2018-08-03T19:30:40.374Z,40.00
2018-08-03T19:33:10.330Z,39.40
2018-08-03T19:35:40.200Z,39.70
2018-08-03T19:38:11.055Z,39.00
2018-08-03T19:40:41.026Z,39.30
2018-08-03T19:43:11.006Z,40.20
2018-08-03T19:45:40.871Z,40.40
2018-08-03T19:48:10.789Z,41.00
2018-08-03T19:50:40.667Z,40.30
2018-08-03T19:53:10.650Z,40.40
2018-08-03T19:55:40.527Z,40.90
2018-08-03T19:58:10.385Z,41.60
2018-08-03T20:00:40.278Z,40.80
2018-08-03T20:03:10.119Z,39.70
2018-08-03T20:05:39.986Z,41.00
2018-08-03T20:10:39.432Z,41.20
2018-08-03T20:13:09.521Z,40.40
2018-08-03T20:15:39.398Z,40.90
2018-08-03T20:18:09.262Z,41.50
2018-08-03T20:20:39.161Z,41.30
2018-08-03T20:23:09.132Z,42.00
2018-08-03T20:25:39.973Z,41.40
2018-08-03T20:28:09.824Z,41.10
2018-08-03T20:30:39.751Z,41.90
2018-08-03T20:33:09.598Z,41.70
2018-08-03T20:35:39.845Z,41.40
2018-08-03T20:38:12.661Z,41.70
2018-08-03T20:40:42.527Z,41.60
2018-08-03T20:43:12.402Z,42.20
2018-08-03T20:45:42.349Z,41.60
2018-08-03T20:48:12.230Z,41.80
2018-08-03T20:50:42.322Z,41.60
2018-08-03T20:53:12.215Z,42.50
2018-08-03T20:55:42.113Z,42.10
2018-08-03T20:58:11.998Z,42.30
2018-08-03T21:00:41.914Z,42.60
2018-08-03T21:03:17.079Z,41.90
2018-08-03T21:05:46.961Z,42.00
2018-08-03T21:08:16.867Z,41.80
2018-08-03T21:10:46.770Z,42.40
2018-08-03T21:13:16.678Z,42.20
2018-08-03T21:15:46.590Z,42.20
2018-08-03T21:18:16.482Z,42.50
2018-08-03T21:20:46.354Z,42.40
2018-08-03T21:23:16.252Z,43.00
2018-08-03T21:25:46.135Z,42.30
2018-08-03T21:28:16.038Z,42.60
2018-08-03T21:30:45.961Z,42.30
2018-08-03T21:33:15.849Z,42.10
2018-08-03T21:35:45.742Z,42.30
2018-08-03T21:38:15.634Z,43.10
2018-08-03T21:40:45.561Z,43.90
2018-08-03T21:43:15.446Z,43.10
2018-08-03T21:45:45.326Z,43.40
2018-08-03T21:48:15.224Z,43.10
2018-08-03T21:50:45.086Z,43.20
2018-08-03T21:53:14.946Z,43.80
2018-08-03T21:55:44.874Z,43.70
2018-08-03T21:58:14.742Z,43.80
2018-08-03T22:00:44.610Z,44.20
2018-08-03T22:03:14.483Z,44.00
2018-08-03T22:05:44.349Z,44.10
2018-08-03T22:08:14.218Z,44.70
2018-08-03T22:10:44.130Z,43.90
2018-08-03T22:13:14.025Z,43.60
2018-08-03T22:15:43.874Z,43.30
2018-08-03T22:18:13.725Z,43.20
2018-08-03T22:20:43.582Z,43.40
2018-08-03T22:23:13.458Z,43.90
2018-08-03T22:25:43.327Z,44.00
2018-08-03T22:28:13.202Z,44.00
2018-08-03T22:30:43.057Z,43.90
2018-08-03T22:33:12.924Z,44.10
2018-08-03T22:35:42.781Z,44.20
2018-08-03T22:38:12.671Z,44.00
2018-08-03T22:40:42.550Z,44.10
2018-08-03T22:43:12.417Z,43.90
2018-08-03T22:45:42.337Z,44.20
2018-08-03T22:48:12.172Z,44.30
2018-08-03T22:50:42.042Z,44.20
2018-08-03T22:53:11.910Z,44.40
2018-08-03T22:55:41.762Z,44.20
2018-08-03T22:58:11.678Z,44.10
2018-08-03T23:00:41.562Z,43.80
2018-08-03T23:03:11.454Z,43.90
2018-08-03T23:05:41.334Z,44.00
2018-08-03T23:08:11.277Z,43.80
2018-08-03T23:10:41.061Z,44.10
2018-08-03T23:13:10.930Z,43.90
2018-08-03T23:15:40.813Z,43.90
2018-08-03T23:18:10.662Z,44.30
2018-08-03T23:20:40.807Z,43.90
2018-08-03T23:23:10.676Z,44.00
2018-08-03T23:25:40.533Z,43.60
2018-08-03T23:28:10.411Z,43.80
2018-08-03T23:30:40.263Z,44.00
2018-08-03T23:33:10.126Z,44.00
2018-08-03T23:35:39.991Z,43.80
2018-08-03T23:38:09.865Z,43.90
2018-08-03T23:40:39.734Z,44.30
2018-08-03T23:43:09.594Z,44.10
2018-08-03T23:45:39.458Z,44.20
2018-08-03T23:48:09.336Z,44.30
2018-08-03T23:50:39.238Z,44.30
2018-08-03T23:53:09.130Z,45.40
2018-08-03T23:58:08.546Z,44.50
